Zellwood, FL (32798)

5:11 PM EST on February 07, 2016 (GMT -0500)
Oak Ridge Apopka | | Change Station
CLOSE
Current Station
Personal Weather Station
Location: Apopka, FL
Elevation: 148 ft
Nearby Weather Stations
Active Advisory: Lake Wind Advisory

Elev 148 ft 28.75 °N, 81.55 °W | Updated 20 seconds ago

Clear
Clear
56.5 °F
Feels Like 56.5 °F
N
2.5
Wind Variable Wind from SE
Gusts 4.9 mph

Today
High -- | Low -- °F
--% Chance of Precip.
Yesterday
High -- | Low -- °F
Precip. -- in
Pressure 29.99 in
Visibility 10.0 miles
Clouds Clear
Dew Point 31 °F
Humidity 37%
Rainfall 0.00 in
Snow Depth Not available.
7:11 AM 6:10 PM
Waning Crescent, 1% visible
METAR KLEE 072153Z 33014G19KT 10SM CLR 14/M03 A2999 RMK AO2 SLP154 T01391033
Pressure 29.99 in
Visibility 10.0 miles
Clouds Clear
Dew Point 31 °F
Humidity 37%
Rainfall 0.00 in
Snow Depth Not available.
7:11 AM 6:10 PM
Waning Crescent, 1% visible
METAR KLEE 072153Z 33014G19KT 10SM CLR 14/M03 A2999 RMK AO2 SLP154 T01391033

10-Day Weather Forecast

Almanac

Astronomy

Feb. 07, 2016 Rise Set
Actual Time
Civil Twilight
Nautical Twilight
Astronomical Twilight
Moon
Length of Visible Light
Length of Day
Tomorrow will be .
, % of the Moon is Illuminated

Today's Extremes

State Highs State Lows

Community

WunderPhotos

Upload Photos

1,891,309 photos uploaded!

WunderBlog® & News

Nearby

Air Quality

  Air Quality AQ Index Pollutant
Not available.

Snow Depth

Station Depth Elevation

Earthquake Activity

City Distance Mag. Time & Date
Minimum magnitude displayed is 2.5.

Coastal Water Temperatures

Place Temperature

Stations

Nearby Weather Stations

Station Location Temp. Windchill Dew Point Humidity Wind Precip. Elev Updated Type
                   

Watches & Warnings

Lake Wind Advisory
Issued: 3:47 AM EST Feb. 7, 2016 – National Weather Service

... Lake Wind Advisory in effect until 6 PM EST this evening...

The National Weather Service in Melbourne has issued a lake Wind
Advisory... which is in effect until 6 PM EST this evening.

* Winds... northwest winds around 20 mph today with gusts up to 30
to 35 mph.

* Impacts... choppy conditions on Open Lakes and other larger
bodies of water will make operation of small boats potentially
hazardous.

Precautionary/preparedness actions...

A lake Wind Advisory indicates that winds will cause rough chop
on area lakes. Small boats will be especially prone to capsizing.



Weitlich